createdAt,value
2017-01-10T00:00:31.814Z,0
2017-01-10T00:01:12.374Z,0
2017-01-10T00:01:52.872Z,0
2017-01-10T00:02:33.387Z,0
2017-01-10T00:03:13.936Z,0
2017-01-10T00:03:54.444Z,0
2017-01-10T00:04:34.992Z,0
2017-01-10T00:05:15.507Z,0
2017-01-10T00:05:56.047Z,0
2017-01-10T00:06:36.592Z,0
2017-01-10T00:07:17.110Z,0
2017-01-10T00:07:57.656Z,0
2017-01-10T00:08:38.160Z,0
2017-01-10T00:09:18.670Z,0
2017-01-10T00:09:59.241Z,0
2017-01-10T00:10:39.813Z,0
2017-01-10T00:11:20.339Z,0
2017-01-10T00:12:00.969Z,0
2017-01-10T00:12:41.750Z,0
2017-01-10T00:13:22.451Z,0
2017-01-10T00:14:02.981Z,0
2017-01-10T00:14:43.492Z,0
2017-01-10T00:15:24.034Z,0
2017-01-10T00:16:04.606Z,0
2017-01-10T00:16:45.123Z,0
2017-01-10T00:17:25.645Z,0
2017-01-10T00:18:06.163Z,0
2017-01-10T00:18:46.893Z,0
2017-01-10T00:19:27.412Z,0
2017-01-10T00:20:08.006Z,0
2017-01-10T00:20:48.417Z,0
2017-01-10T00:21:28.939Z,0
2017-01-10T00:22:09.519Z,0
2017-01-10T00:22:50.007Z,0
2017-01-10T00:23:30.560Z,0
2017-01-10T00:24:11.116Z,0
2017-01-10T00:24:51.665Z,0
2017-01-10T00:25:32.303Z,0
2017-01-10T00:26:13.221Z,0
2017-01-10T00:26:53.730Z,0
2017-01-10T00:27:34.269Z,0
2017-01-10T00:28:14.782Z,0
2017-01-10T00:28:55.301Z,0
2017-01-10T00:29:35.814Z,0
2017-01-10T00:30:16.352Z,0
2017-01-10T00:30:57.007Z,0
2017-01-10T00:31:37.497Z,0
2017-01-10T00:32:18.041Z,0
2017-01-10T00:32:58.574Z,0
2017-01-10T00:33:39.089Z,0
2017-01-10T00:34:19.590Z,0
2017-01-10T00:35:00.146Z,0
2017-01-10T00:35:40.689Z,0
2017-01-10T00:36:21.215Z,0
2017-01-10T00:37:01.761Z,0
2017-01-10T00:37:42.302Z,0
2017-01-10T00:38:23.110Z,0
2017-01-10T00:39:03.718Z,0
2017-01-10T00:39:44.297Z,0
2017-01-10T00:40:24.779Z,0
2017-01-10T00:41:05.324Z,0
2017-01-10T00:41:45.823Z,0
2017-01-10T00:42:26.481Z,0
2017-01-10T00:43:06.959Z,0
2017-01-10T00:43:47.512Z,0
2017-01-10T00:44:28.206Z,0
2017-01-10T00:45:09.465Z,0
2017-01-10T00:45:50.035Z,0
2017-01-10T00:46:30.543Z,0
2017-01-10T00:47:11.103Z,0
2017-01-10T00:47:51.611Z,0
2017-01-10T00:48:32.142Z,0
2017-01-10T00:49:12.879Z,0
2017-01-10T00:49:53.580Z,0
2017-01-10T00:50:34.164Z,0
2017-01-10T00:51:14.703Z,0
2017-01-10T00:51:55.242Z,0
2017-01-10T00:52:35.786Z,0
2017-01-10T00:53:16.306Z,0
2017-01-10T00:53:56.865Z,0
2017-01-10T00:54:37.388Z,0
2017-01-10T00:55:17.940Z,0
2017-01-10T00:55:58.557Z,0
2017-01-10T00:56:39.245Z,0
2017-01-10T00:57:19.746Z,0
2017-01-10T00:58:00.290Z,0
2017-01-10T00:58:40.799Z,0
2017-01-10T00:59:21.375Z,0
2017-01-10T01:00:01.907Z,0
2017-01-10T01:00:42.433Z,0
2017-01-10T01:01:22.943Z,0
2017-01-10T01:02:03.520Z,0
2017-01-10T01:02:44.250Z,0
2017-01-10T01:03:24.866Z,0
2017-01-10T01:04:05.287Z,0
2017-01-10T01:04:45.813Z,0
2017-01-10T01:05:26.335Z,0
2017-01-10T01:06:06.885Z,0
2017-01-10T01:06:47.431Z,0
2017-01-10T01:07:28.036Z,0
2017-01-10T01:08:08.795Z,0
2017-01-10T01:08:49.371Z,0
2017-01-10T01:09:30.215Z,0
2017-01-10T01:10:10.792Z,0
2017-01-10T01:10:51.250Z,0
2017-01-10T01:11:31.809Z,0
2017-01-10T01:12:12.362Z,0
2017-01-10T01:12:52.909Z,0
2017-01-10T01:13:33.503Z,0
2017-01-10T01:14:14.156Z,0
2017-01-10T01:14:54.769Z,0
2017-01-10T01:15:35.660Z,0
2017-01-10T01:16:16.178Z,0
2017-01-10T01:16:56.707Z,0
2017-01-10T01:17:37.220Z,0
2017-01-10T01:18:17.808Z,0
2017-01-10T01:18:58.340Z,0
2017-01-10T01:19:38.903Z,0
2017-01-10T01:20:19.435Z,0
2017-01-10T01:21:00.132Z,0
2017-01-10T01:21:40.871Z,0
2017-01-10T01:22:21.543Z,0
2017-01-10T01:23:02.099Z,0
2017-01-10T01:23:42.634Z,0
2017-01-10T01:24:23.214Z,0
2017-01-10T01:25:03.693Z,0
2017-01-10T01:25:44.279Z,0
2017-01-10T01:26:24.949Z,0
2017-01-10T01:27:05.455Z,0
2017-01-10T01:27:46.292Z,0
2017-01-10T01:28:26.953Z,0
2017-01-10T01:29:07.569Z,0
2017-01-10T01:29:48.066Z,0
2017-01-10T01:30:28.611Z,0
2017-01-10T01:31:09.113Z,0
2017-01-10T01:31:49.679Z,0
2017-01-10T01:32:30.197Z,0
2017-01-10T01:33:10.762Z,0
2017-01-10T01:33:51.361Z,0
2017-01-10T01:34:31.937Z,0
2017-01-10T01:35:13.146Z,0
2017-01-10T01:35:54.207Z,0
2017-01-10T01:36:34.632Z,0
2017-01-10T01:37:15.145Z,0
2017-01-10T01:37:55.654Z,0
2017-01-10T01:38:36.338Z,0
2017-01-10T01:39:16.837Z,0
2017-01-10T01:39:57.509Z,0
2017-01-10T01:40:38.123Z,0
2017-01-10T01:41:18.659Z,0
2017-01-10T01:41:59.159Z,0
2017-01-10T01:42:39.690Z,0
2017-01-10T01:43:20.223Z,0
2017-01-10T01:44:00.875Z,0
2017-01-10T01:44:41.506Z,0
2017-01-10T01:45:22.222Z,0
2017-01-10T01:46:02.796Z,0
2017-01-10T01:46:43.337Z,0
2017-01-10T01:47:23.866Z,0
2017-01-10T01:48:04.444Z,0
2017-01-10T01:48:44.919Z,0
2017-01-10T01:49:25.393Z,0
2017-01-10T01:50:05.943Z,0
2017-01-10T01:50:46.442Z,0
2017-01-10T01:51:27.016Z,0
2017-01-10T01:52:07.882Z,0
2017-01-10T01:52:48.520Z,0
2017-01-10T01:53:28.979Z,0
2017-01-10T01:54:09.552Z,0
2017-01-10T01:54:50.097Z,0
2017-01-10T01:55:30.587Z,0
2017-01-10T01:56:11.092Z,0
2017-01-10T01:56:51.786Z,0
2017-01-10T01:57:32.300Z,0
2017-01-10T01:58:12.925Z,0
2017-01-10T01:58:53.472Z,0
2017-01-10T01:59:33.833Z,0
2017-01-10T02:00:14.371Z,0
2017-01-10T02:00:54.928Z,0
2017-01-10T02:01:35.423Z,0
2017-01-10T02:02:15.969Z,0
2017-01-10T02:02:59.384Z,0
2017-01-10T02:03:39.923Z,0
2017-01-10T02:04:20.399Z,0
2017-01-10T02:05:01.117Z,0
2017-01-10T02:05:41.749Z,0
2017-01-10T02:06:22.366Z,0
2017-01-10T02:07:03.074Z,0
2017-01-10T02:07:43.885Z,0
2017-01-10T02:08:24.431Z,0
2017-01-10T02:09:04.978Z,0
2017-01-10T02:09:45.437Z,0
2017-01-10T02:10:25.960Z,0
2017-01-10T02:11:06.554Z,0
2017-01-10T02:11:47.093Z,0
2017-01-10T02:12:27.691Z,0
2017-01-10T02:13:08.315Z,0
2017-01-10T02:13:49.153Z,0
2017-01-10T02:14:29.728Z,0
2017-01-10T02:15:10.414Z,0
2017-01-10T02:15:54.556Z,0
2017-01-10T02:16:35.192Z,0
2017-01-10T02:17:15.649Z,0
2017-01-10T02:17:56.203Z,0
2017-01-10T02:18:36.750Z,0
2017-01-10T02:19:17.227Z,0
2017-01-10T02:19:57.799Z,0
2017-01-10T02:20:38.299Z,0
2017-01-10T02:21:18.875Z,0
2017-01-10T02:21:59.380Z,0
2017-01-10T02:22:40.257Z,0
2017-01-10T02:23:21.193Z,0
2017-01-10T02:24:02.246Z,0
2017-01-10T02:24:42.812Z,0
2017-01-10T02:25:23.326Z,0
2017-01-10T02:26:03.870Z,0
2017-01-10T02:26:44.369Z,0
2017-01-10T02:27:24.906Z,0
2017-01-10T02:28:05.455Z,0
2017-01-10T02:28:46.004Z,0
2017-01-10T02:29:26.537Z,0
2017-01-10T02:30:07.051Z,0
2017-01-10T02:30:47.582Z,0
2017-01-10T02:31:28.111Z,0
2017-01-10T02:32:08.631Z,0
2017-01-10T02:32:49.156Z,0
2017-01-10T02:33:29.731Z,0
2017-01-10T02:34:10.280Z,0
2017-01-10T02:34:50.837Z,0
2017-01-10T02:35:31.381Z,0
2017-01-10T02:36:11.872Z,0
2017-01-10T02:36:52.395Z,0
2017-01-10T02:37:32.926Z,0
2017-01-10T02:38:13.434Z,0
2017-01-10T02:38:53.998Z,0
2017-01-10T02:39:34.631Z,0
2017-01-10T02:40:15.106Z,0
2017-01-10T02:40:55.597Z,0
2017-01-10T02:41:36.170Z,0
2017-01-10T02:42:16.685Z,0
2017-01-10T02:42:57.274Z,0
2017-01-10T02:43:37.802Z,0
2017-01-10T02:44:18.298Z,0
2017-01-10T02:44:58.827Z,0
2017-01-10T02:45:39.376Z,0
2017-01-10T02:46:19.954Z,0
2017-01-10T02:47:00.451Z,0
2017-01-10T02:47:41.006Z,0
2017-01-10T02:48:21.551Z,0
2017-01-10T02:49:02.087Z,0
2017-01-10T02:49:42.612Z,0
2017-01-10T02:50:23.215Z,0
2017-01-10T02:51:03.741Z,0
2017-01-10T02:51:44.358Z,0
2017-01-10T02:52:25.171Z,0
2017-01-10T02:53:05.537Z,0
2017-01-10T02:53:46.117Z,0
2017-01-10T02:54:26.620Z,0
2017-01-10T02:55:07.201Z,0
2017-01-10T02:55:47.741Z,0
2017-01-10T02:56:28.272Z,0
2017-01-10T02:57:08.786Z,0
2017-01-10T02:57:49.312Z,0
2017-01-10T02:58:30.034Z,0
2017-01-10T02:59:10.673Z,0
2017-01-10T02:59:51.230Z,0
2017-01-10T03:00:31.817Z,0
2017-01-10T03:01:12.350Z,0
2017-01-10T03:01:52.929Z,0
2017-01-10T03:02:33.452Z,0
2017-01-10T03:03:13.977Z,0
2017-01-10T03:03:54.644Z,0
2017-01-10T03:04:35.172Z,0
2017-01-10T03:05:15.659Z,0
2017-01-10T03:05:56.160Z,0
2017-01-10T03:06:36.711Z,0
2017-01-10T03:07:17.228Z,0
2017-01-10T03:07:57.822Z,0
2017-01-10T03:08:38.330Z,0
2017-01-10T03:09:18.858Z,0
2017-01-10T03:09:59.363Z,0
2017-01-10T03:10:40.048Z,0
2017-01-10T03:11:20.565Z,0
2017-01-10T03:12:01.102Z,0
2017-01-10T03:12:41.654Z,0
2017-01-10T03:13:22.166Z,0
2017-01-10T03:14:02.665Z,0
2017-01-10T03:14:43.220Z,0
2017-01-10T03:15:23.782Z,0
2017-01-10T03:16:04.294Z,0
2017-01-10T03:16:45.189Z,0
2017-01-10T03:17:25.582Z,0
2017-01-10T03:18:06.067Z,0
2017-01-10T03:18:46.649Z,0
2017-01-10T03:19:27.161Z,0
2017-01-10T03:20:07.684Z,0
2017-01-10T03:20:48.249Z,0
2017-01-10T03:21:28.769Z,0
2017-01-10T03:22:09.315Z,0
2017-01-10T03:22:49.986Z,0
2017-01-10T03:23:30.517Z,0
2017-01-10T03:24:11.029Z,0
2017-01-10T03:24:51.585Z,0
2017-01-10T03:25:32.101Z,0
2017-01-10T03:26:12.640Z,0
2017-01-10T03:26:53.254Z,0
2017-01-10T03:27:33.700Z,0
2017-01-10T03:28:14.304Z,0
2017-01-10T03:28:54.898Z,0
2017-01-10T03:29:35.396Z,0
2017-01-10T03:30:15.933Z,0
2017-01-10T03:30:56.474Z,0
2017-01-10T03:31:36.962Z,0
2017-01-10T03:32:17.507Z,0
2017-01-10T03:32:58.058Z,0
2017-01-10T03:33:38.619Z,0
2017-01-10T03:34:19.110Z,0
2017-01-10T03:34:59.600Z,0
2017-01-10T03:35:40.195Z,0
2017-01-10T03:36:20.757Z,0
2017-01-10T03:37:01.351Z,0
2017-01-10T03:37:41.870Z,0
2017-01-10T03:38:22.384Z,0
2017-01-10T03:39:02.963Z,0
2017-01-10T03:39:43.477Z,0
2017-01-10T03:40:24.003Z,0
2017-01-10T03:41:04.541Z,0
2017-01-10T03:41:45.090Z,0
2017-01-10T03:42:25.586Z,0
2017-01-10T03:43:06.149Z,0
2017-01-10T03:43:46.690Z,0
2017-01-10T03:44:27.233Z,0
2017-01-10T03:45:07.810Z,0
2017-01-10T03:45:48.339Z,0
2017-01-10T03:46:28.852Z,0
2017-01-10T03:47:09.423Z,0
2017-01-10T03:47:49.924Z,0
2017-01-10T03:48:30.525Z,0
2017-01-10T03:49:11.024Z,0
2017-01-10T03:49:51.621Z,0
2017-01-10T03:50:32.150Z,0
2017-01-10T03:51:12.701Z,0
2017-01-10T03:51:53.258Z,0
2017-01-10T03:52:33.764Z,0
2017-01-10T03:53:14.357Z,0
2017-01-10T03:53:54.983Z,0
2017-01-10T03:54:35.495Z,0
2017-01-10T03:55:16.001Z,0
2017-01-10T03:55:56.569Z,0
2017-01-10T03:56:37.092Z,0
2017-01-10T03:57:17.671Z,0
2017-01-10T03:57:58.150Z,0
2017-01-10T03:58:38.690Z,0
2017-01-10T03:59:19.245Z,0
2017-01-10T03:59:59.780Z,0
2017-01-10T04:00:41.408Z,0
2017-01-10T04:01:21.925Z,0
2017-01-10T04:02:02.444Z,0
2017-01-10T04:02:43.095Z,0
2017-01-10T04:03:23.515Z,0
2017-01-10T04:04:04.053Z,0
2017-01-10T04:04:44.572Z,0
2017-01-10T04:05:25.127Z,0
2017-01-10T04:06:05.757Z,0
2017-01-10T04:06:46.201Z,0
2017-01-10T04:07:26.752Z,0
2017-01-10T04:08:07.309Z,0
2017-01-10T04:08:47.833Z,0
2017-01-10T04:09:28.453Z,0
2017-01-10T04:10:09.008Z,0
2017-01-10T04:10:49.537Z,0
2017-01-10T04:11:30.106Z,0
2017-01-10T04:12:10.635Z,0
2017-01-10T04:12:51.195Z,0
2017-01-10T04:13:31.723Z,0
2017-01-10T04:14:12.230Z,0
2017-01-10T04:14:52.790Z,0
2017-01-10T04:15:33.296Z,0
2017-01-10T04:16:13.835Z,0
2017-01-10T04:16:54.385Z,0
2017-01-10T04:17:34.960Z,0
2017-01-10T04:18:15.480Z,0
2017-01-10T04:18:56.083Z,0
2017-01-10T04:19:36.574Z,0
2017-01-10T04:20:17.107Z,0
2017-01-10T04:20:57.662Z,0
2017-01-10T04:21:38.179Z,0
2017-01-10T04:22:18.743Z,0
2017-01-10T04:22:59.323Z,0
2017-01-10T04:23:39.826Z,0
2017-01-10T04:24:20.363Z,0
2017-01-10T04:25:00.990Z,0
2017-01-10T04:25:41.630Z,0
2017-01-10T04:26:22.138Z,0
2017-01-10T04:27:02.757Z,0
2017-01-10T04:27:43.285Z,0
2017-01-10T04:28:23.810Z,0
2017-01-10T04:29:04.305Z,0
2017-01-10T04:29:44.890Z,0
2017-01-10T04:30:25.395Z,0
2017-01-10T04:31:06.032Z,0
2017-01-10T04:31:46.626Z,0
2017-01-10T04:32:27.128Z,0
2017-01-10T04:33:07.661Z,0
2017-01-10T04:33:48.205Z,0
2017-01-10T04:34:28.755Z,0
2017-01-10T04:35:09.309Z,0
2017-01-10T04:35:49.862Z,0
2017-01-10T04:36:30.423Z,0
2017-01-10T04:37:10.941Z,0
2017-01-10T04:37:51.505Z,0
2017-01-10T04:38:32.106Z,0
2017-01-10T04:39:12.626Z,0
2017-01-10T04:39:53.169Z,0
2017-01-10T04:40:33.723Z,0
2017-01-10T04:41:14.250Z,0
2017-01-10T04:41:54.820Z,0
2017-01-10T04:42:35.358Z,0
2017-01-10T04:43:15.898Z,0
2017-01-10T04:43:56.476Z,0
2017-01-10T04:44:37.024Z,0
2017-01-10T04:45:17.544Z,0
2017-01-10T04:45:58.118Z,0
2017-01-10T04:46:38.651Z,0
2017-01-10T04:47:19.224Z,0
2017-01-10T04:47:59.714Z,0
2017-01-10T04:48:40.248Z,0
2017-01-10T04:49:20.751Z,0
2017-01-10T04:50:01.319Z,0
2017-01-10T04:50:41.829Z,0
2017-01-10T04:51:22.393Z,0
2017-01-10T04:52:02.941Z,0
2017-01-10T04:52:43.476Z,0
2017-01-10T04:53:23.978Z,0
2017-01-10T04:54:04.543Z,0
2017-01-10T04:54:45.087Z,0
2017-01-10T04:55:25.620Z,0
2017-01-10T04:56:06.148Z,0
2017-01-10T04:56:46.688Z,0
2017-01-10T04:57:27.240Z,0
2017-01-10T04:58:07.844Z,0
2017-01-10T04:58:48.580Z,0
2017-01-10T04:59:29.135Z,0
2017-01-10T05:00:09.647Z,0
2017-01-10T05:00:50.223Z,0
2017-01-10T05:01:30.801Z,0
2017-01-10T05:02:11.340Z,0
2017-01-10T05:02:51.878Z,0
2017-01-10T05:03:32.459Z,0
2017-01-10T05:04:12.905Z,0
2017-01-10T05:04:53.465Z,0
2017-01-10T05:05:34.009Z,0
2017-01-10T05:06:14.565Z,0
2017-01-10T05:06:55.090Z,0
2017-01-10T05:07:35.605Z,0
2017-01-10T05:08:16.188Z,0
2017-01-10T05:08:56.675Z,0
2017-01-10T05:09:37.206Z,0
2017-01-10T05:10:17.690Z,0
2017-01-10T05:10:58.304Z,0
2017-01-10T05:11:38.826Z,0
2017-01-10T05:12:19.383Z,0
2017-01-10T05:12:59.854Z,0
2017-01-10T05:13:40.393Z,0
2017-01-10T05:14:20.925Z,0
2017-01-10T05:15:01.430Z,0
2017-01-10T05:15:42.011Z,0
2017-01-10T05:16:22.525Z,0
2017-01-10T05:17:03.063Z,0
2017-01-10T05:17:43.630Z,0
2017-01-10T05:18:24.178Z,0
2017-01-10T05:19:04.689Z,0
2017-01-10T05:19:45.271Z,0
2017-01-10T05:20:25.829Z,0
2017-01-10T05:21:06.359Z,0
2017-01-10T05:21:46.907Z,0
2017-01-10T05:22:27.441Z,0
2017-01-10T05:23:07.960Z,0
2017-01-10T05:23:48.479Z,0
2017-01-10T05:24:29.015Z,0
2017-01-10T05:25:09.591Z,0
2017-01-10T05:25:50.131Z,0
2017-01-10T05:26:30.650Z,0
2017-01-10T05:27:11.173Z,0
2017-01-10T05:27:51.705Z,0
2017-01-10T05:28:32.277Z,0
2017-01-10T05:29:12.791Z,0
2017-01-10T05:29:53.339Z,0
2017-01-10T05:30:33.813Z,0
2017-01-10T05:31:14.458Z,0
2017-01-10T05:31:54.890Z,0
2017-01-10T05:32:35.472Z,0
2017-01-10T05:33:16.002Z,0
2017-01-10T05:33:56.566Z,0
2017-01-10T05:34:37.078Z,0
2017-01-10T05:35:17.651Z,0
2017-01-10T05:35:58.237Z,0
2017-01-10T05:36:38.825Z,0
2017-01-10T05:37:19.411Z,0
2017-01-10T05:37:59.814Z,0
2017-01-10T05:38:40.359Z,0
2017-01-10T05:39:20.863Z,0
2017-01-10T05:40:01.418Z,0
2017-01-10T05:40:41.956Z,0
2017-01-10T05:41:22.488Z,0
2017-01-10T05:42:03.047Z,0
2017-01-10T05:42:43.564Z,0
2017-01-10T05:43:24.092Z,0
2017-01-10T05:44:04.574Z,0
2017-01-10T05:44:45.115Z,0
2017-01-10T05:45:25.610Z,0
2017-01-10T05:46:06.169Z,0
2017-01-10T05:46:46.687Z,0
2017-01-10T05:47:27.213Z,0
2017-01-10T05:48:07.761Z,0
2017-01-10T05:48:48.300Z,0
2017-01-10T05:49:29.508Z,0
2017-01-10T05:50:10.127Z,0
2017-01-10T05:50:50.675Z,0
2017-01-10T05:51:31.169Z,0
2017-01-10T05:52:11.671Z,0
2017-01-10T05:52:52.194Z,0
2017-01-10T05:53:32.738Z,0
2017-01-10T05:54:13.260Z,0
2017-01-10T05:54:53.766Z,0
2017-01-10T05:55:34.316Z,0
2017-01-10T05:56:14.897Z,0
2017-01-10T05:56:55.445Z,0
2017-01-10T05:57:35.967Z,0
2017-01-10T05:58:16.521Z,0
2017-01-10T05:58:57.063Z,0
2017-01-10T05:59:37.581Z,0
2017-01-10T06:00:18.108Z,0
2017-01-10T06:00:58.621Z,0
2017-01-10T06:01:39.169Z,0
2017-01-10T06:02:19.666Z,0
2017-01-10T06:03:00.199Z,0
2017-01-10T06:03:40.753Z,0
2017-01-10T06:04:21.268Z,0
2017-01-10T06:05:01.831Z,0
2017-01-10T06:05:42.388Z,0
2017-01-10T06:06:22.937Z,0
2017-01-10T06:07:03.430Z,0
2017-01-10T06:07:43.964Z,0
2017-01-10T06:08:24.525Z,0
2017-01-10T06:09:05.062Z,0
2017-01-10T06:09:45.604Z,0
2017-01-10T06:10:26.131Z,0
2017-01-10T06:11:06.630Z,0
2017-01-10T06:11:47.233Z,0
2017-01-10T06:12:27.752Z,0
2017-01-10T06:13:08.304Z,0
2017-01-10T06:13:48.918Z,0
2017-01-10T06:14:29.371Z,0
2017-01-10T06:15:09.952Z,0
2017-01-10T06:15:50.480Z,0
2017-01-10T06:16:31.002Z,0
2017-01-10T06:17:11.571Z,0
2017-01-10T06:17:52.091Z,0
2017-01-10T06:18:32.600Z,0
2017-01-10T06:19:13.132Z,0
2017-01-10T06:19:53.773Z,0
2017-01-10T06:20:34.257Z,0
2017-01-10T06:21:14.824Z,0
2017-01-10T06:21:55.317Z,0
2017-01-10T06:22:35.910Z,0
2017-01-10T06:23:16.426Z,0
2017-01-10T06:23:56.971Z,0
2017-01-10T06:24:37.506Z,0
2017-01-10T06:25:18.013Z,0
2017-01-10T06:25:58.556Z,0
2017-01-10T06:26:39.072Z,0
2017-01-10T06:27:19.620Z,0
2017-01-10T06:28:00.149Z,0
2017-01-10T06:28:40.704Z,0
2017-01-10T06:29:21.340Z,0
2017-01-10T06:30:01.894Z,0
2017-01-10T06:30:42.429Z,0
2017-01-10T06:31:22.985Z,0
2017-01-10T06:32:03.528Z,0
2017-01-10T06:32:44.063Z,0
2017-01-10T06:33:24.624Z,0
2017-01-10T06:34:05.141Z,0
2017-01-10T06:34:45.721Z,0
2017-01-10T06:35:26.283Z,0
2017-01-10T06:36:06.831Z,0
2017-01-10T06:36:47.387Z,0
2017-01-10T06:37:27.926Z,0
2017-01-10T06:38:08.486Z,0
2017-01-10T06:38:48.961Z,0
2017-01-10T06:39:29.513Z,0
2017-01-10T06:40:10.078Z,0
2017-01-10T06:40:50.625Z,0
2017-01-10T06:41:31.161Z,0
2017-01-10T06:42:11.655Z,0
2017-01-10T06:42:52.217Z,0
2017-01-10T06:43:32.726Z,0
2017-01-10T06:44:13.283Z,0
2017-01-10T06:44:53.822Z,0
2017-01-10T06:45:34.331Z,0
2017-01-10T06:46:14.886Z,0
2017-01-10T06:46:55.481Z,0
2017-01-10T06:47:36.020Z,0
2017-01-10T06:48:16.565Z,4
2017-01-10T06:48:57.115Z,4
2017-01-10T06:49:37.678Z,4
2017-01-10T06:50:18.255Z,4
2017-01-10T06:50:58.936Z,0
2017-01-10T06:51:39.484Z,0
2017-01-10T06:52:19.994Z,0
2017-01-10T06:53:00.528Z,4
2017-01-10T06:53:41.078Z,4
2017-01-10T06:54:21.651Z,4
2017-01-10T06:55:02.184Z,4
2017-01-10T06:55:42.746Z,4
2017-01-10T06:56:23.305Z,4
2017-01-10T06:57:03.833Z,8
2017-01-10T06:57:44.364Z,4
2017-01-10T06:58:24.893Z,4
2017-01-10T06:59:05.442Z,8
2017-01-10T06:59:45.989Z,8
2017-01-10T07:00:26.559Z,8
2017-01-10T07:01:07.090Z,8
2017-01-10T07:01:47.680Z,12
2017-01-10T07:02:28.222Z,8
2017-01-10T07:03:08.789Z,12
2017-01-10T07:03:49.370Z,12
2017-01-10T07:04:29.899Z,12
2017-01-10T07:05:10.432Z,16
2017-01-10T07:05:50.978Z,16
2017-01-10T07:06:31.542Z,20
2017-01-10T07:07:12.085Z,20
2017-01-10T07:07:52.632Z,24
2017-01-10T07:08:33.179Z,24
2017-01-10T07:09:13.696Z,24
2017-01-10T07:09:54.261Z,28
2017-01-10T07:10:34.765Z,28
2017-01-10T07:11:15.301Z,28
2017-01-10T07:11:55.854Z,32
2017-01-10T07:12:36.395Z,32
2017-01-10T07:13:16.936Z,32
2017-01-10T07:13:57.475Z,36
2017-01-10T07:14:37.982Z,36
2017-01-10T07:15:18.539Z,40
2017-01-10T07:15:59.085Z,40
2017-01-10T07:16:39.624Z,44
2017-01-10T07:17:20.202Z,44
2017-01-10T07:18:00.739Z,48
2017-01-10T07:18:41.275Z,48
2017-01-10T07:19:21.798Z,48
2017-01-10T07:20:02.328Z,52
2017-01-10T07:20:42.888Z,56
2017-01-10T07:21:23.440Z,60
2017-01-10T07:22:04.023Z,64
2017-01-10T07:22:44.517Z,68
2017-01-10T07:23:25.045Z,72
2017-01-10T07:24:05.603Z,76
2017-01-10T07:24:46.150Z,80
2017-01-10T07:25:26.719Z,84
2017-01-10T07:26:07.256Z,88
2017-01-10T07:26:47.799Z,84
2017-01-10T07:27:28.340Z,88
2017-01-10T07:28:08.895Z,92
2017-01-10T07:28:49.428Z,96
2017-01-10T07:29:29.979Z,100
2017-01-10T07:30:10.498Z,104
2017-01-10T07:30:51.047Z,108
2017-01-10T07:31:31.572Z,112
2017-01-10T07:32:12.139Z,116
2017-01-10T07:32:52.671Z,120
2017-01-10T07:33:33.239Z,124
2017-01-10T07:34:13.763Z,132
2017-01-10T07:34:54.328Z,140
2017-01-10T07:35:34.843Z,144
2017-01-10T07:36:15.399Z,148
2017-01-10T07:36:55.940Z,156
2017-01-10T07:37:36.428Z,160
2017-01-10T07:38:16.944Z,164
2017-01-10T07:38:57.487Z,164
2017-01-10T07:39:38.013Z,176
2017-01-10T07:40:18.590Z,192
2017-01-10T07:40:59.083Z,204
2017-01-10T07:41:39.642Z,212
2017-01-10T07:42:20.187Z,220
2017-01-10T07:43:00.735Z,232
2017-01-10T07:43:41.244Z,244
2017-01-10T07:44:21.797Z,252
2017-01-10T07:45:02.319Z,256
2017-01-10T07:45:42.847Z,260
2017-01-10T07:47:56.412Z,288
2017-01-10T07:48:36.965Z,296
2017-01-10T07:49:17.471Z,304
2017-01-10T07:49:57.991Z,320
2017-01-10T07:50:38.558Z,328
2017-01-10T07:51:19.090Z,336
2017-01-10T07:51:59.611Z,348
2017-01-10T07:52:40.146Z,360
2017-01-10T07:53:20.668Z,368
2017-01-10T07:54:01.215Z,384
2017-01-10T07:54:41.889Z,400
2017-01-10T07:55:22.437Z,416
2017-01-10T07:56:02.950Z,432
2017-01-10T07:56:43.449Z,452
2017-01-10T07:57:24.083Z,468
2017-01-10T07:58:04.510Z,484
2017-01-10T07:58:45.020Z,504
2017-01-10T07:59:25.638Z,520
2017-01-10T08:00:06.180Z,512
2017-01-10T08:00:46.680Z,520
2017-01-10T08:01:27.240Z,548
2017-01-10T08:02:07.748Z,544
2017-01-10T08:02:48.300Z,596
2017-01-10T08:03:28.900Z,616
2017-01-10T08:04:09.469Z,624
2017-01-10T08:04:49.978Z,644
2017-01-10T08:05:30.659Z,664
2017-01-10T08:06:11.074Z,684
2017-01-10T08:06:51.620Z,704
2017-01-10T08:07:32.199Z,720
2017-01-10T08:08:12.725Z,760
2017-01-10T08:08:53.250Z,780
2017-01-10T08:09:33.780Z,808
2017-01-10T08:10:14.301Z,828
2017-01-10T08:10:54.819Z,848
2017-01-10T08:11:35.331Z,868
2017-01-10T08:12:15.898Z,900
2017-01-10T08:12:56.437Z,872
2017-01-10T08:13:37.000Z,852
2017-01-10T08:14:17.488Z,920
2017-01-10T08:14:58.040Z,908
2017-01-10T08:15:38.595Z,944
2017-01-10T08:16:19.120Z,984
2017-01-10T08:16:59.653Z,1020
2017-01-10T08:17:40.219Z,1024
2017-01-10T08:18:20.681Z,1036
2017-01-10T08:19:01.221Z,1056
2017-01-10T08:19:41.908Z,1056
2017-01-10T08:20:22.348Z,1064
2017-01-10T08:21:02.881Z,1092
2017-01-10T08:21:43.382Z,1096
2017-01-10T08:22:23.918Z,1128
2017-01-10T08:23:04.452Z,1156
2017-01-10T08:23:44.975Z,1180
2017-01-10T08:24:25.527Z,1196
2017-01-10T08:25:06.058Z,1224
2017-01-10T08:25:46.631Z,1244
2017-01-10T08:26:27.149Z,1268
2017-01-10T08:27:07.685Z,1320
2017-01-10T08:27:48.205Z,1344
2017-01-10T08:28:28.727Z,1376
2017-01-10T08:29:09.238Z,1412
2017-01-10T08:29:49.805Z,1440
2017-01-10T08:30:30.327Z,1464
2017-01-10T08:31:10.860Z,1496
2017-01-10T08:31:51.400Z,1516
2017-01-10T08:32:31.918Z,1488
2017-01-10T08:33:12.450Z,1508
2017-01-10T08:33:52.997Z,1540
2017-01-10T08:34:33.517Z,1540
2017-01-10T08:35:14.030Z,1528
2017-01-10T08:35:54.552Z,1556
2017-01-10T08:36:35.072Z,1616
2017-01-10T08:37:15.626Z,1680
2017-01-10T08:37:56.203Z,1776
2017-01-10T08:38:36.704Z,1816
2017-01-10T08:39:17.257Z,1852
2017-01-10T08:39:57.798Z,1888
2017-01-10T08:40:38.405Z,1944
2017-01-10T08:41:19.003Z,1988
2017-01-10T08:41:59.702Z,2036
2017-01-10T08:42:40.149Z,2076
2017-01-10T08:43:20.697Z,2112
2017-01-10T08:44:01.233Z,2152
2017-01-10T08:44:41.729Z,2172
2017-01-10T08:45:22.316Z,2196
2017-01-10T08:46:02.868Z,2240
2017-01-10T08:46:43.343Z,2304
2017-01-10T08:47:23.945Z,2328
2017-01-10T08:48:04.414Z,2244
2017-01-10T08:48:44.935Z,2312
2017-01-10T08:49:25.511Z,2324
2017-01-10T08:50:06.065Z,2372
2017-01-10T08:50:46.543Z,2432
2017-01-10T08:51:27.050Z,2488
2017-01-10T08:52:07.615Z,2556
2017-01-10T08:52:48.148Z,2636
2017-01-10T08:53:28.692Z,2656
2017-01-10T08:54:09.244Z,2788
2017-01-10T08:54:49.778Z,2860
2017-01-10T08:55:30.325Z,2936
2017-01-10T08:56:10.849Z,2984
2017-01-10T08:56:51.411Z,3008
2017-01-10T08:57:32.135Z,3080
2017-01-10T08:58:12.741Z,3168
2017-01-10T08:58:53.311Z,3248
2017-01-10T08:59:33.842Z,3284
2017-01-10T09:00:14.522Z,3316
2017-01-10T09:00:55.032Z,3348
2017-01-10T09:01:35.557Z,3372
2017-01-10T09:02:16.119Z,3364
2017-01-10T09:02:56.608Z,3340
2017-01-10T09:03:37.204Z,3328
2017-01-10T09:04:17.690Z,3308
2017-01-10T09:04:58.308Z,3336
2017-01-10T09:05:38.831Z,3364
2017-01-10T09:06:19.336Z,3352
2017-01-10T09:06:59.839Z,3356
2017-01-10T09:07:40.362Z,3176
2017-01-10T09:08:20.946Z,3256
2017-01-10T09:09:01.460Z,3304
2017-01-10T09:09:41.948Z,3376
2017-01-10T09:10:22.531Z,3392
2017-01-10T09:11:03.024Z,3392
2017-01-10T09:11:43.559Z,3400
2017-01-10T09:12:24.138Z,3396
2017-01-10T09:13:04.678Z,3380
2017-01-10T09:13:45.197Z,3372
2017-01-10T09:14:25.725Z,3448
2017-01-10T09:15:06.295Z,3428
2017-01-10T09:15:46.803Z,3404
2017-01-10T09:16:27.311Z,3364
2017-01-10T09:17:07.844Z,3332
2017-01-10T09:17:48.388Z,3280
2017-01-10T09:18:28.898Z,3200
2017-01-10T09:19:09.437Z,3160
2017-01-10T09:19:49.966Z,3136
2017-01-10T09:20:30.529Z,3112
2017-01-10T09:21:11.063Z,3044
2017-01-10T09:21:51.573Z,3028
2017-01-10T09:22:32.107Z,2944
2017-01-10T09:23:12.613Z,2924
2017-01-10T09:23:53.187Z,2896
2017-01-10T09:24:33.710Z,2884
2017-01-10T09:25:14.270Z,2872
2017-01-10T09:25:54.804Z,2872
2017-01-10T09:26:35.301Z,2900
2017-01-10T09:27:15.818Z,2956
2017-01-10T09:27:56.361Z,2968
2017-01-10T09:28:36.907Z,3000
2017-01-10T09:29:17.474Z,3000
2017-01-10T09:29:58.016Z,2968
2017-01-10T09:30:38.559Z,2952
2017-01-10T09:31:19.101Z,2936
2017-01-10T09:31:59.608Z,2924
2017-01-10T09:32:40.154Z,2940
2017-01-10T09:33:20.626Z,2948
2017-01-10T09:34:01.176Z,2952
2017-01-10T09:34:41.688Z,2964
2017-01-10T09:35:22.202Z,2980
2017-01-10T09:36:02.733Z,3004
2017-01-10T09:36:43.218Z,3036
2017-01-10T09:37:23.741Z,3064
2017-01-10T09:38:04.320Z,3088
2017-01-10T09:38:44.919Z,3116
2017-01-10T09:39:25.464Z,3152
2017-01-10T09:40:06.049Z,3168
2017-01-10T09:40:46.584Z,3204
2017-01-10T09:41:27.135Z,3220
2017-01-10T09:42:07.637Z,3240
2017-01-10T09:42:48.165Z,3244
2017-01-10T09:43:28.640Z,3256
2017-01-10T09:44:09.258Z,3288
2017-01-10T09:44:50.018Z,3312
2017-01-10T09:45:30.603Z,3340
2017-01-10T09:46:11.123Z,3348
2017-01-10T09:46:51.784Z,3384